Terminal Aerodrome Forecast
Issued by NWS

Home | Current Version | Previous Version | Text Only | Print | Product List | Glossary On
Versions: 1 2 3 4 5 6 7 8 9 10 11 12 13 14 15 16
000
FTUS43 KDMX 210520
TAFFOD
TAF
KFOD 210520Z 2106/2206 21006KT P6SM VCTS SCT060CB BKN100
     FM210700 VRB04KT 6SM SHRA VCTS SCT030CB OVC060
     FM211200 23006KT P6SM VCSH SCT005 BKN080
     FM211600 33014G20KT P6SM FEW050 SCT120
     FM220100 34010KT P6SM SCT100=

USA.gov is the U.S. government's official web portal to all federal, state and local government web resources and services.